sensor_id;sensor_type;location;lat;lon;timestamp;pressure;altitude;pressure_sealevel;temperature;humidity
20043;BME280;10182;52.896;6.496;2023-04-28T00:03:16;101506.88;;;6.14;100.00
20043;BME280;10182;52.896;6.496;2023-04-28T00:08:19;101502.56;;;6.10;100.00
20043;BME280;10182;52.896;6.496;2023-04-28T00:13:21;101487.38;;;6.26;100.00
20043;BME280;10182;52.896;6.496;2023-04-28T00:18:23;101483.09;;;6.19;100.00
20043;BME280;10182;52.896;6.496;2023-04-28T00:23:26;101484.94;;;6.15;100.00
20043;BME280;10182;52.896;6.496;2023-04-28T00:28:28;101485.88;;;6.11;100.00
20043;BME280;10182;52.896;6.496;2023-04-28T00:33:29;101479.75;;;6.10;100.00
20043;BME280;10182;52.896;6.496;2023-04-28T00:38:32;101458.69;;;6.10;100.00
20043;BME280;10182;52.896;6.496;2023-04-28T00:43:43;101450.00;;;6.05;100.00
20043;BME280;10182;52.896;6.496;2023-04-28T00:48:45;101435.16;;;6.04;100.00
20043;BME280;10182;52.896;6.496;2023-04-28T00:53:49;101408.78;;;6.07;100.00
20043;BME280;10182;52.896;6.496;2023-04-28T00:58:51;101402.72;;;6.02;100.00
20043;BME280;10182;52.896;6.496;2023-04-28T01:03:53;101402.72;;;6.02;100.00
20043;BME280;10182;52.896;6.496;2023-04-28T01:08:56;101393.16;;;5.98;100.00
20043;BME280;10182;52.896;6.496;2023-04-28T01:13:58;101386.88;;;6.05;100.00
20043;BME280;10182;52.896;6.496;2023-04-28T01:19:00;101388.69;;;6.03;100.00
20043;BME280;10182;52.896;6.496;2023-04-28T01:24:04;101387.78;;;6.06;100.00
20043;BME280;10182;52.896;6.496;2023-04-28T01:29:06;101395.75;;;6.00;100.00
20043;BME280;10182;52.896;6.496;2023-04-28T01:34:08;101380.06;;;5.93;100.00
20043;BME280;10182;52.896;6.496;2023-04-28T01:39:11;101360.66;;;6.01;100.00
20043;BME280;10182;52.896;6.496;2023-04-28T01:44:13;101351.19;;;5.89;100.00
20043;BME280;10182;52.896;6.496;2023-04-28T01:49:14;101334.59;;;5.87;100.00
20043;BME280;10182;52.896;6.496;2023-04-28T01:54:17;101327.50;;;5.92;100.00
20043;BME280;10182;52.896;6.496;2023-04-28T01:59:19;101320.34;;;6.02;100.00
20043;BME280;10182;52.896;6.496;2023-04-28T02:04:25;101318.59;;;6.01;100.00
20043;BME280;10182;52.896;6.496;2023-04-28T02:09:28;101310.03;;;5.88;100.00
20043;BME280;10182;52.896;6.496;2023-04-28T02:14:30;101296.78;;;5.92;100.00
20043;BME280;10182;52.896;6.496;2023-04-28T02:19:32;101282.78;;;5.90;100.00
20043;BME280;10182;52.896;6.496;2023-04-28T02:24:35;101277.59;;;5.87;100.00
20043;BME280;10182;52.896;6.496;2023-04-28T02:29:37;101270.44;;;5.96;100.00
20043;BME280;10182;52.896;6.496;2023-04-28T02:34:39;101266.09;;;5.93;100.00
20043;BME280;10182;52.896;6.496;2023-04-28T02:39:42;101274.06;;;5.90;100.00
20043;BME280;10182;52.896;6.496;2023-04-28T02:44:44;101267.09;;;5.87;100.00
20043;BME280;10182;52.896;6.496;2023-04-28T02:49:46;101255.78;;;5.82;100.00
20043;BME280;10182;52.896;6.496;2023-04-28T02:54:49;101261.09;;;5.79;100.00
20043;BME280;10182;52.896;6.496;2023-04-28T02:59:53;101248.06;;;5.74;100.00
20043;BME280;10182;52.896;6.496;2023-04-28T03:04:55;101244.41;;;5.82;100.00
20043;BME280;10182;52.896;6.496;2023-04-28T03:09:58;101227.75;;;5.83;100.00
20043;BME280;10182;52.896;6.496;2023-04-28T03:15:00;101225.19;;;5.80;100.00
20043;BME280;10182;52.896;6.496;2023-04-28T03:20:02;101224.16;;;5.87;100.00
20043;BME280;10182;52.896;6.496;2023-04-28T03:25:06;101222.56;;;5.78;100.00
20043;BME280;10182;52.896;6.496;2023-04-28T03:30:08;101217.22;;;5.83;100.00
20043;BME280;10182;52.896;6.496;2023-04-28T03:35:10;101199.84;;;5.75;100.00
20043;BME280;10182;52.896;6.496;2023-04-28T03:40:13;101209.53;;;5.72;100.00
20043;BME280;10182;52.896;6.496;2023-04-28T03:45:15;101196.41;;;5.72;100.00
20043;BME280;10182;52.896;6.496;2023-04-28T03:50:17;101197.38;;;5.66;100.00
20043;BME280;10182;52.896;6.496;2023-04-28T03:55:20;101192.19;;;5.62;100.00
20043;BME280;10182;52.896;6.496;2023-04-28T04:00:22;101190.50;;;5.61;100.00
20043;BME280;10182;52.896;6.496;2023-04-28T04:05:23;101193.91;;;5.64;100.00
20043;BME280;10182;52.896;6.496;2023-04-28T04:10:27;101187.72;;;5.67;100.00
20043;BME280;10182;52.896;6.496;2023-04-28T04:15:29;101166.91;;;5.56;100.00
20043;BME280;10182;52.896;6.496;2023-04-28T04:20:30;101166.91;;;5.56;100.00
20043;BME280;10182;52.896;6.496;2023-04-28T04:25:34;101148.53;;;5.54;100.00
20043;BME280;10182;52.896;6.496;2023-04-28T04:30:35;101158.22;;;5.52;100.00
20043;BME280;10182;52.896;6.496;2023-04-28T04:35:37;101151.09;;;5.57;100.00
20043;BME280;10182;52.896;6.496;2023-04-28T04:40:40;101139.75;;;5.57;100.00
20043;BME280;10182;52.896;6.496;2023-04-28T04:45:42;101133.34;;;5.70;100.00
20043;BME280;10182;52.896;6.496;2023-04-28T04:50:43;101130.72;;;5.70;100.00
20043;BME280;10182;52.896;6.496;2023-04-28T04:55:47;101121.00;;;5.74;100.00
20043;BME280;10182;52.896;6.496;2023-04-28T05:00:48;101126.13;;;5.80;100.00
20043;BME280;10182;52.896;6.496;2023-04-28T05:05:50;101135.97;;;5.70;100.00
20043;BME280;10182;52.896;6.496;2023-04-28T05:10:53;101132.47;;;5.70;100.00
20043;BME280;10182;52.896;6.496;2023-04-28T05:15:55;101119.06;;;5.82;100.00
20043;BME280;10182;52.896;6.496;2023-04-28T05:20:56;101117.13;;;5.92;100.00
20043;BME280;10182;52.896;6.496;2023-04-28T05:25:59;101099.50;;;5.99;100.00
20043;BME280;10182;52.896;6.496;2023-04-28T05:31:02;101092.31;;;6.05;100.00
20043;BME280;10182;52.896;6.496;2023-04-28T05:36:04;101106.44;;;6.01;100.00
20043;BME280;10182;52.896;6.496;2023-04-28T05:41:08;101101.78;;;6.14;100.00
20043;BME280;10182;52.896;6.496;2023-04-28T05:46:10;101102.50;;;6.21;100.00
20043;BME280;10182;52.896;6.496;2023-04-28T05:51:11;101097.03;;;6.29;100.00
20043;BME280;10182;52.896;6.496;2023-04-28T05:56:15;101099.72;;;6.27;100.00
20043;BME280;10182;52.896;6.496;2023-04-28T06:01:17;101090.03;;;6.29;100.00
20043;BME280;10182;52.896;6.496;2023-04-28T06:06:19;101095.13;;;6.35;100.00
20043;BME280;10182;52.896;6.496;2023-04-28T06:11:22;101096.81;;;6.39;100.00
20043;BME280;10182;52.896;6.496;2023-04-28T06:16:24;101096.84;;;6.38;100.00
20043;BME280;10182;52.896;6.496;2023-04-28T06:21:25;101097.47;;;6.48;100.00
20043;BME280;10182;52.896;6.496;2023-04-28T06:26:29;101094.75;;;6.52;100.00
20043;BME280;10182;52.896;6.496;2023-04-28T06:31:31;101092.81;;;6.60;100.00
20043;BME280;10182;52.896;6.496;2023-04-28T06:36:33;101092.59;;;6.70;100.00
20043;BME280;10182;52.896;6.496;2023-04-28T06:41:36;101088.03;;;6.75;100.00
20043;BME280;10182;52.896;6.496;2023-04-28T06:46:38;101086.16;;;6.80;100.00
20043;BME280;10182;52.896;6.496;2023-04-28T06:51:40;101079.22;;;6.77;100.00
20043;BME280;10182;52.896;6.496;2023-04-28T06:56:43;101064.91;;;6.88;100.00
20043;BME280;10182;52.896;6.496;2023-04-28T07:01:45;101059.59;;;6.89;100.00
20043;BME280;10182;52.896;6.496;2023-04-28T07:06:46;101050.19;;;7.12;100.00
20043;BME280;10182;52.896;6.496;2023-04-28T07:11:50;101044.44;;;7.31;100.00
20043;BME280;10182;52.896;6.496;2023-04-28T07:16:51;101035.44;;;7.38;100.00
20043;BME280;10182;52.896;6.496;2023-04-28T07:21:53;101028.13;;;7.48;100.00
20043;BME280;10182;52.896;6.496;2023-04-28T07:26:56;101028.25;;;7.43;100.00
20043;BME280;10182;52.896;6.496;2023-04-28T07:31:58;101029.09;;;7.45;100.00
20043;BME280;10182;52.896;6.496;2023-04-28T07:37:00;101023.91;;;7.42;100.00
20043;BME280;10182;52.896;6.496;2023-04-28T07:42:04;101009.72;;;7.46;100.00
20043;BME280;10182;52.896;6.496;2023-04-28T07:47:06;101008.13;;;7.70;100.00
20043;BME280;10182;52.896;6.496;2023-04-28T07:52:07;101001.84;;;8.03;100.00
20043;BME280;10182;52.896;6.496;2023-04-28T07:57:11;100997.81;;;8.19;100.00
20043;BME280;10182;52.896;6.496;2023-04-28T08:02:13;101005.25;;;8.33;100.00
20043;BME280;10182;52.896;6.496;2023-04-28T08:07:15;101003.22;;;8.41;100.00
20043;BME280;10182;52.896;6.496;2023-04-28T08:12:18;101008.38;;;8.46;100.00
20043;BME280;10182;52.896;6.496;2023-04-28T08:17:19;101016.78;;;8.59;100.00
20043;BME280;10182;52.896;6.496;2023-04-28T08:22:21;101023.44;;;8.69;100.00
20043;BME280;10182;52.896;6.496;2023-04-28T08:27:24;101029.84;;;8.62;100.00
20043;BME280;10182;52.896;6.496;2023-04-28T08:32:26;101040.03;;;8.48;100.00
20043;BME280;10182;52.896;6.496;2023-04-28T08:37:28;101036.41;;;8.50;100.00
20043;BME280;10182;52.896;6.496;2023-04-28T08:42:32;101033.56;;;8.56;100.00
20043;BME280;10182;52.896;6.496;2023-04-28T08:47:36;101028.94;;;8.63;100.00
20043;BME280;10182;52.896;6.496;2023-04-28T08:52:40;101016.09;;;8.79;100.00
20043;BME280;10182;52.896;6.496;2023-04-28T08:57:45;101024.38;;;8.93;100.00
20043;BME280;10182;52.896;6.496;2023-04-28T09:02:49;101018.66;;;9.06;100.00
20043;BME280;10182;52.896;6.496;2023-04-28T09:07:51;101007.69;;;9.17;100.00
20043;BME280;10182;52.896;6.496;2023-04-28T09:12:54;101021.34;;;9.29;100.00
20043;BME280;10182;52.896;6.496;2023-04-28T09:17:57;101010.13;;;9.23;100.00
20043;BME280;10182;52.896;6.496;2023-04-28T09:23:12;101006.72;;;9.43;100.00
20043;BME280;10182;52.896;6.496;2023-04-28T09:28:30;100999.94;;;9.59;100.00
20043;BME280;10182;52.896;6.496;2023-04-28T09:33:32;100993.03;;;10.01;100.00
20043;BME280;10182;52.896;6.496;2023-04-28T09:38:42;100968.03;;;10.08;100.00
20043;BME280;10182;52.896;6.496;2023-04-28T09:43:46;100956.34;;;10.36;100.00
20043;BME280;10182;52.896;6.496;2023-04-28T09:48:48;100938.44;;;10.62;100.00
20043;BME280;10182;52.896;6.496;2023-04-28T09:53:49;100934.31;;;10.75;100.00
20043;BME280;10182;52.896;6.496;2023-04-28T09:58:53;100933.31;;;11.17;100.00
20043;BME280;10182;52.896;6.496;2023-04-28T10:03:59;100930.31;;;11.44;100.00
20043;BME280;10182;52.896;6.496;2023-04-28T10:09:02;100923.63;;;11.35;100.00
20043;BME280;10182;52.896;6.496;2023-04-28T10:14:05;100925.13;;;11.60;100.00
20043;BME280;10182;52.896;6.496;2023-04-28T10:19:07;100909.78;;;11.67;100.00
20043;BME280;10182;52.896;6.496;2023-04-28T10:24:14;100901.13;;;11.81;100.00
20043;BME280;10182;52.896;6.496;2023-04-28T10:29:22;100908.69;;;11.71;100.00
20043;BME280;10182;52.896;6.496;2023-04-28T10:34:24;100910.66;;;11.85;100.00
20043;BME280;10182;52.896;6.496;2023-04-28T10:39:28;100898.25;;;11.85;100.00
20043;BME280;10182;52.896;6.496;2023-04-28T10:44:43;100894.78;;;12.02;100.00
20043;BME280;10182;52.896;6.496;2023-04-28T10:50:08;100883.72;;;12.63;100.00
20043;BME280;10182;52.896;6.496;2023-04-28T10:55:30;100877.88;;;12.90;100.00
20043;BME280;10182;52.896;6.496;2023-04-28T11:00:39;100876.19;;;13.04;100.00
20043;BME280;10182;52.896;6.496;2023-04-28T11:11:23;100878.94;;;12.69;100.00
20043;BME280;10182;52.896;6.496;2023-04-28T11:16:27;100866.69;;;12.67;100.00
20043;BME280;10182;52.896;6.496;2023-04-28T11:21:29;100872.97;;;12.66;100.00
20043;BME280;10182;52.896;6.496;2023-04-28T11:26:36;100865.13;;;12.63;100.00
20043;BME280;10182;52.896;6.496;2023-04-28T11:31:39;100857.25;;;12.61;100.00
20043;BME280;10182;52.896;6.496;2023-04-28T11:36:41;100851.72;;;12.48;100.00
20043;BME280;10182;52.896;6.496;2023-04-28T11:41:44;100854.09;;;12.70;100.00
20043;BME280;10182;52.896;6.496;2023-04-28T11:46:48;100854.38;;;12.82;100.00
20043;BME280;10182;52.896;6.496;2023-04-28T11:51:54;100850.84;;;12.81;100.00
20043;BME280;10182;52.896;6.496;2023-04-28T11:56:58;100845.94;;;12.74;100.00
20043;BME280;10182;52.896;6.496;2023-04-28T12:02:05;100845.28;;;12.70;100.00
20043;BME280;10182;52.896;6.496;2023-04-28T12:07:09;100842.63;;;12.70;100.00
20043;BME280;10182;52.896;6.496;2023-04-28T12:12:13;100842.28;;;12.76;100.00
20043;BME280;10182;52.896;6.496;2023-04-28T12:17:23;100842.13;;;12.95;100.00
20043;BME280;10182;52.896;6.496;2023-04-28T12:22:26;100847.13;;;13.01;100.00
20043;BME280;10182;52.896;6.496;2023-04-28T12:27:28;100846.91;;;12.89;100.00
20043;BME280;10182;52.896;6.496;2023-04-28T12:32:39;100841.34;;;12.77;100.00
20043;BME280;10182;52.896;6.496;2023-04-28T12:37:43;100833.75;;;12.69;100.00
20043;BME280;10182;52.896;6.496;2023-04-28T12:42:44;100829.84;;;12.77;100.00
20043;BME280;10182;52.896;6.496;2023-04-28T12:47:48;100833.78;;;12.85;100.00
20043;BME280;10182;52.896;6.496;2023-04-28T12:52:49;100825.56;;;12.74;100.00
20043;BME280;10182;52.896;6.496;2023-04-28T12:57:51;100835.50;;;12.70;100.00
20043;BME280;10182;52.896;6.496;2023-04-28T13:02:55;100845.06;;;12.57;100.00
20043;BME280;10182;52.896;6.496;2023-04-28T13:07:57;100847.34;;;12.47;100.00
20043;BME280;10182;52.896;6.496;2023-04-28T13:12:59;100845.34;;;12.35;100.00
20043;BME280;10182;52.896;6.496;2023-04-28T13:18:02;100845.69;;;12.29;100.00
20043;BME280;10182;52.896;6.496;2023-04-28T13:23:06;100846.91;;;12.22;100.00
20043;BME280;10182;52.896;6.496;2023-04-28T13:28:08;100847.16;;;12.17;100.00
20043;BME280;10182;52.896;6.496;2023-04-28T13:33:11;100846.06;;;12.21;100.00
20043;BME280;10182;52.896;6.496;2023-04-28T13:38:13;100841.59;;;12.22;100.00
20043;BME280;10182;52.896;6.496;2023-04-28T13:43:15;100839.81;;;12.22;100.00
20043;BME280;10182;52.896;6.496;2023-04-28T13:48:18;100840.50;;;12.26;100.00
20043;BME280;10182;52.896;6.496;2023-04-28T13:53:20;100835.09;;;12.27;100.00
20043;BME280;10182;52.896;6.496;2023-04-28T13:58:22;100832.44;;;12.27;100.00
20043;BME280;10182;52.896;6.496;2023-04-28T14:03:25;100837.84;;;12.26;100.00
20043;BME280;10182;52.896;6.496;2023-04-28T14:08:27;100838.81;;;12.25;100.00
20043;BME280;10182;52.896;6.496;2023-04-28T14:13:29;100836.06;;;12.26;100.00
20043;BME280;10182;52.896;6.496;2023-04-28T14:18:32;100835.72;;;12.32;100.00
20043;BME280;10182;52.896;6.496;2023-04-28T14:23:34;100831.75;;;12.41;100.00
20043;BME280;10182;52.896;6.496;2023-04-28T14:28:35;100823.78;;;12.41;100.00
20043;BME280;10182;52.896;6.496;2023-04-28T14:33:39;100820.03;;;12.45;100.00
20043;BME280;10182;52.896;6.496;2023-04-28T14:38:41;100821.13;;;12.41;100.00
20043;BME280;10182;52.896;6.496;2023-04-28T14:43:42;100819.31;;;12.42;100.00
20043;BME280;10182;52.896;6.496;2023-04-28T14:48:47;100808.16;;;12.35;100.00
20043;BME280;10182;52.896;6.496;2023-04-28T14:53:49;100807.44;;;12.31;100.00
20043;BME280;10182;52.896;6.496;2023-04-28T14:58:50;100811.06;;;12.30;100.00
20043;BME280;10182;52.896;6.496;2023-04-28T15:03:53;100807.13;;;12.38;100.00
20043;BME280;10182;52.896;6.496;2023-04-28T15:08:55;100796.44;;;12.39;100.00
20043;BME280;10182;52.896;6.496;2023-04-28T15:13:57;100800.28;;;12.33;100.00
20043;BME280;10182;52.896;6.496;2023-04-28T15:19:00;100799.44;;;12.33;100.00
20043;BME280;10182;52.896;6.496;2023-04-28T15:24:02;100795.66;;;12.37;100.00
20043;BME280;10182;52.896;6.496;2023-04-28T15:29:04;100796.59;;;12.36;100.00
20043;BME280;10182;52.896;6.496;2023-04-28T15:34:07;100803.50;;;12.23;100.00
20043;BME280;10182;52.896;6.496;2023-04-28T15:39:09;100805.44;;;12.19;100.00
20043;BME280;10182;52.896;6.496;2023-04-28T15:44:11;100817.50;;;12.09;100.00
20043;BME280;10182;52.896;6.496;2023-04-28T15:49:14;100816.03;;;12.03;100.00
20043;BME280;10182;52.896;6.496;2023-04-28T15:54:16;100819.69;;;12.00;100.00
20043;BME280;10182;52.896;6.496;2023-04-28T15:59:17;100827.81;;;11.97;100.00
20043;BME280;10182;52.896;6.496;2023-04-28T16:04:20;100830.75;;;11.91;100.00
20043;BME280;10182;52.896;6.496;2023-04-28T16:09:22;100832.69;;;11.88;100.00
20043;BME280;10182;52.896;6.496;2023-04-28T16:14:24;100832.00;;;11.84;100.00
20043;BME280;10182;52.896;6.496;2023-04-28T16:19:28;100842.13;;;11.76;100.00
20043;BME280;10182;52.896;6.496;2023-04-28T16:24:29;100837.69;;;11.76;100.00
20043;BME280;10182;52.896;6.496;2023-04-28T16:29:31;100845.88;;;11.72;100.00
20043;BME280;10182;52.896;6.496;2023-04-28T16:34:34;100841.41;;;11.72;100.00
20043;BME280;10182;52.896;6.496;2023-04-28T16:39:36;100853.91;;;11.70;100.00
20043;BME280;10182;52.896;6.496;2023-04-28T16:44:38;100843.06;;;11.75;100.00
20043;BME280;10182;52.896;6.496;2023-04-28T16:49:41;100838.00;;;11.70;100.00
20043;BME280;10182;52.896;6.496;2023-04-28T16:54:42;100846.16;;;11.65;100.00
20043;BME280;10182;52.896;6.496;2023-04-28T16:59:44;100847.03;;;11.66;100.00
20043;BME280;10182;52.896;6.496;2023-04-28T17:04:49;100849.69;;;11.66;100.00
20043;BME280;10182;52.896;6.496;2023-04-28T17:09:51;100856.94;;;11.62;100.00
20043;BME280;10182;52.896;6.496;2023-04-28T17:14:52;100854.53;;;11.58;100.00
20043;BME280;10182;52.896;6.496;2023-04-28T17:19:55;100851.16;;;11.54;100.00
20043;BME280;10182;52.896;6.496;2023-04-28T17:24:59;100845.94;;;11.52;100.00
20043;BME280;10182;52.896;6.496;2023-04-28T17:30:01;100849.66;;;11.48;100.00
20043;BME280;10182;52.896;6.496;2023-04-28T17:35:05;100854.09;;;11.48;100.00
20043;BME280;10182;52.896;6.496;2023-04-28T17:40:08;100866.75;;;11.43;100.00
20043;BME280;10182;52.896;6.496;2023-04-28T17:45:10;100874.75;;;11.41;100.00
20043;BME280;10182;52.896;6.496;2023-04-28T17:50:13;100874.06;;;11.38;100.00
20043;BME280;10182;52.896;6.496;2023-04-28T17:55:15;100878.63;;;11.34;100.00
20043;BME280;10182;52.896;6.496;2023-04-28T18:00:18;100880.50;;;11.32;100.00
20043;BME280;10182;52.896;6.496;2023-04-28T18:05:21;100884.50;;;11.22;100.00
20043;BME280;10182;52.896;6.496;2023-04-28T18:10:23;100888.59;;;11.10;100.00
20043;BME280;10182;52.896;6.496;2023-04-28T18:15:27;100897.63;;;11.06;100.00
20043;BME280;10182;52.896;6.496;2023-04-28T18:20:31;100897.75;;;11.03;100.00
20043;BME280;10182;52.896;6.496;2023-04-28T18:25:32;100900.41;;;11.03;100.00
20043;BME280;10182;52.896;6.496;2023-04-28T18:30:35;100909.66;;;10.94;100.00
20043;BME280;10182;52.896;6.496;2023-04-28T18:35:39;100899.97;;;10.93;100.00
20043;BME280;10182;52.896;6.496;2023-04-28T18:40:41;100907.16;;;10.91;100.00
20043;BME280;10182;52.896;6.496;2023-04-28T18:45:43;100911.88;;;10.84;100.00
20043;BME280;10182;52.896;6.496;2023-04-28T18:50:46;100914.72;;;10.79;100.00
20043;BME280;10182;52.896;6.496;2023-04-28T18:55:48;100926.31;;;10.77;100.00
20043;BME280;10182;52.896;6.496;2023-04-28T19:00:50;100933.41;;;10.76;100.00
20043;BME280;10182;52.896;6.496;2023-04-28T19:05:53;100933.47;;;10.75;100.00
20043;BME280;10182;52.896;6.496;2023-04-28T19:10:56;100939.91;;;10.69;100.00
20043;BME280;10182;52.896;6.496;2023-04-28T19:15:58;100948.78;;;10.68;100.00
20043;BME280;10182;52.896;6.496;2023-04-28T19:21:02;100966.59;;;10.64;100.00
20043;BME280;10182;52.896;6.496;2023-04-28T19:26:04;100972.22;;;10.57;100.00
20043;BME280;10182;52.896;6.496;2023-04-28T19:31:07;100980.97;;;10.59;100.00
20043;BME280;10182;52.896;6.496;2023-04-28T19:36:10;100995.09;;;10.59;100.00
20043;BME280;10182;52.896;6.496;2023-04-28T19:41:11;101001.69;;;10.49;100.00
20043;BME280;10182;52.896;6.496;2023-04-28T19:46:13;101010.69;;;10.45;100.00
20043;BME280;10182;52.896;6.496;2023-04-28T19:51:17;101019.63;;;10.42;100.00
20043;BME280;10182;52.896;6.496;2023-04-28T19:56:19;101016.66;;;10.28;100.00
20043;BME280;10182;52.896;6.496;2023-04-28T20:01:21;101031.19;;;10.18;100.00
20043;BME280;10182;52.896;6.496;2023-04-28T20:06:24;101035.72;;;10.14;100.00
20043;BME280;10182;52.896;6.496;2023-04-28T20:11:26;101037.66;;;10.10;100.00
20043;BME280;10182;52.896;6.496;2023-04-28T20:16:28;101039.63;;;10.05;100.00
20043;BME280;10182;52.896;6.496;2023-04-28T20:21:31;101039.63;;;10.05;100.00
20043;BME280;10182;52.896;6.496;2023-04-28T20:26:34;101053.63;;;10.07;100.00
20043;BME280;10182;52.896;6.496;2023-04-28T20:31:36;101051.72;;;9.89;100.00
20043;BME280;10182;52.896;6.496;2023-04-28T20:36:39;101060.63;;;9.86;100.00
20043;BME280;10182;52.896;6.496;2023-04-28T20:41:41;101063.50;;;9.80;100.00
20043;BME280;10182;52.896;6.496;2023-04-28T20:46:43;101066.41;;;9.74;100.00
20043;BME280;10182;52.896;6.496;2023-04-28T20:51:46;101069.56;;;9.60;100.00
20043;BME280;10182;52.896;6.496;2023-04-28T20:56:48;101082.09;;;9.55;100.00
20043;BME280;10182;52.896;6.496;2023-04-28T21:01:50;101091.97;;;9.49;100.00
20043;BME280;10182;52.896;6.496;2023-04-28T21:06:53;101086.81;;;9.46;100.00
20043;BME280;10182;52.896;6.496;2023-04-28T21:11:55;101087.59;;;9.48;100.00
20043;BME280;10182;52.896;6.496;2023-04-28T21:16:56;101100.22;;;9.42;100.00
20043;BME280;10182;52.896;6.496;2023-04-28T21:21:59;101103.81;;;9.39;100.00
20043;BME280;10182;52.896;6.496;2023-04-28T21:27:01;101106.56;;;9.36;100.00
20043;BME280;10182;52.896;6.496;2023-04-28T21:32:04;101118.06;;;9.35;100.00
20043;BME280;10182;52.896;6.496;2023-04-28T21:37:07;101114.59;;;9.33;100.00
20043;BME280;10182;52.896;6.496;2023-04-28T21:42:09;101123.03;;;9.19;100.00
20043;BME280;10182;52.896;6.496;2023-04-28T21:47:10;101133.53;;;9.21;100.00
20043;BME280;10182;52.896;6.496;2023-04-28T21:52:13;101135.59;;;9.12;100.00
20043;BME280;10182;52.896;6.496;2023-04-28T21:57:15;101140.00;;;9.12;100.00
20043;BME280;10182;52.896;6.496;2023-04-28T22:02:17;101143.69;;;9.08;100.00
20043;BME280;10182;52.896;6.496;2023-04-28T22:07:20;101144.66;;;9.05;100.00
20043;BME280;10182;52.896;6.496;2023-04-28T22:12:22;101156.28;;;9.00;100.00
20043;BME280;10182;52.896;6.496;2023-04-28T22:17:23;101161.53;;;9.01;100.00
20043;BME280;10182;52.896;6.496;2023-04-28T22:22:28;101167.25;;;8.87;100.00
20043;BME280;10182;52.896;6.496;2023-04-28T22:27:30;101176.84;;;8.90;100.00
20043;BME280;10182;52.896;6.496;2023-04-28T22:32:32;101191.06;;;8.86;100.00
20043;BME280;10182;52.896;6.496;2023-04-28T22:37:36;101199.31;;;8.76;100.00
20043;BME280;10182;52.896;6.496;2023-04-28T22:42:39;101198.47;;;8.74;100.00
20043;BME280;10182;52.896;6.496;2023-04-28T22:47:40;101203.03;;;8.69;100.00
20043;BME280;10182;52.896;6.496;2023-04-28T22:52:44;101204.03;;;8.67;100.00
20043;BME280;10182;52.896;6.496;2023-04-28T22:57:46;101209.44;;;8.62;100.00
20043;BME280;10182;52.896;6.496;2023-04-28T23:02:48;101200.41;;;8.69;100.00
20043;BME280;10182;52.896;6.496;2023-04-28T23:07:51;101209.38;;;8.63;100.00
20043;BME280;10182;52.896;6.496;2023-04-28T23:12:53;101218.97;;;8.66;100.00
20043;BME280;10182;52.896;6.496;2023-04-28T23:17:54;101221.78;;;8.61;100.00
20043;BME280;10182;52.896;6.496;2023-04-28T23:22:57;101216.81;;;8.51;100.00
20043;BME280;10182;52.896;6.496;2023-04-28T23:27:59;101218.50;;;8.53;100.00
20043;BME280;10182;52.896;6.496;2023-04-28T23:33:01;101230.22;;;8.43;100.00
20043;BME280;10182;52.896;6.496;2023-04-28T23:38:04;101230.41;;;8.37;100.00
20043;BME280;10182;52.896;6.496;2023-04-28T23:43:06;101233.00;;;8.38;100.00
20043;BME280;10182;52.896;6.496;2023-04-28T23:48:08;101234.06;;;8.33;100.00
20043;BME280;10182;52.896;6.496;2023-04-28T23:53:11;101241.03;;;8.35;100.00
20043;BME280;10182;52.896;6.496;2023-04-28T23:58:13;101251.59;;;8.35;100.00
